LY87 weather

Kovin Airport
South Banat, Serbia

Public forecast

Using degrees Celsius for public forecast. Weather courtesy of forecast.io.

METAR (pilot weather report)

Closest report is Vršac International Airport, 26.8 nm (49.7 km) NNE. Retrieved 2019/06/25 17:30 UTC (27 minutes ago):

LYVR 251730Z VRB02KT 0000 SCT033 27/21 Q1023 NOSIG

TAF (pilot weather forecast)

Closest forecast is Vršac International Airport, 26.8 nm (49.7 km) NNE. Retrieved 2019/06/25 12:00 UTC (6 hours ago):

TAF LYVR 251100Z 2512/2612 05005KT 9999 SCT033 TX30/2513Z TN18/2603Z TEMPO 2512/2518 VRB15KT 3000 TSRA SCT027CB SCT033 TEMPO 2602/2605 3000 BR